sensor_id;sensor_type;location;lat;lon;timestamp;P1;durP1;ratioP1;P2;durP2;ratioP2
17091;SDS011;8661;45.700;4.880;2023-06-04T00:02:03;0.10;;;0.10;;
17091;SDS011;8661;45.700;4.880;2023-06-04T00:04:30;0.10;;;0.10;;
17091;SDS011;8661;45.700;4.880;2023-06-04T00:06:56;0.10;;;0.10;;
17091;SDS011;8661;45.700;4.880;2023-06-04T00:09:26;0.10;;;0.10;;
17091;SDS011;8661;45.700;4.880;2023-06-04T00:11:54;0.10;;;0.10;;
17091;SDS011;8661;45.700;4.880;2023-06-04T00:14:21;0.10;;;0.10;;
17091;SDS011;8661;45.700;4.880;2023-06-04T00:16:49;0.10;;;0.10;;
17091;SDS011;8661;45.700;4.880;2023-06-04T00:19:15;0.10;;;0.10;;
17091;SDS011;8661;45.700;4.880;2023-06-04T00:21:42;0.00;;;0.00;;
17091;SDS011;8661;45.700;4.880;2023-06-04T00:24:09;0.10;;;0.10;;
17091;SDS011;8661;45.700;4.880;2023-06-04T00:26:37;0.00;;;0.00;;
17091;SDS011;8661;45.700;4.880;2023-06-04T00:29:05;0.10;;;0.10;;
17091;SDS011;8661;45.700;4.880;2023-06-04T00:31:32;0.10;;;0.10;;
17091;SDS011;8661;45.700;4.880;2023-06-04T00:34:00;0.10;;;0.10;;
17091;SDS011;8661;45.700;4.880;2023-06-04T00:36:27;0.07;;;0.07;;
17091;SDS011;8661;45.700;4.880;2023-06-04T00:38:54;0.10;;;0.10;;
17091;SDS011;8661;45.700;4.880;2023-06-04T00:41:21;0.10;;;0.10;;
17091;SDS011;8661;45.700;4.880;2023-06-04T00:43:48;0.10;;;0.10;;
17091;SDS011;8661;45.700;4.880;2023-06-04T00:46:22;0.10;;;0.10;;
17091;SDS011;8661;45.700;4.880;2023-06-04T00:48:50;0.10;;;0.10;;
17091;SDS011;8661;45.700;4.880;2023-06-04T00:51:17;0.10;;;0.10;;
17091;SDS011;8661;45.700;4.880;2023-06-04T00:53:45;0.10;;;0.10;;
17091;SDS011;8661;45.700;4.880;2023-06-04T00:56:12;0.10;;;0.10;;
17091;SDS011;8661;45.700;4.880;2023-06-04T00:58:39;0.10;;;0.10;;
17091;SDS011;8661;45.700;4.880;2023-06-04T01:01:12;0.10;;;0.10;;
17091;SDS011;8661;45.700;4.880;2023-06-04T01:03:49;0.10;;;0.10;;
17091;SDS011;8661;45.700;4.880;2023-06-04T01:06:21;0.10;;;0.10;;
17091;SDS011;8661;45.700;4.880;2023-06-04T01:08:52;0.10;;;0.10;;
17091;SDS011;8661;45.700;4.880;2023-06-04T01:11:32;0.10;;;0.10;;
17091;SDS011;8661;45.700;4.880;2023-06-04T01:14:00;0.10;;;0.10;;
17091;SDS011;8661;45.700;4.880;2023-06-04T01:16:28;0.10;;;0.10;;
17091;SDS011;8661;45.700;4.880;2023-06-04T01:19:01;0.00;;;0.00;;
17091;SDS011;8661;45.700;4.880;2023-06-04T01:21:34;0.00;;;0.00;;
17091;SDS011;8661;45.700;4.880;2023-06-04T01:24:04;0.10;;;0.10;;
17091;SDS011;8661;45.700;4.880;2023-06-04T01:26:32;0.10;;;0.10;;
17091;SDS011;8661;45.700;4.880;2023-06-04T01:28:58;0.10;;;0.10;;
17091;SDS011;8661;45.700;4.880;2023-06-04T01:31:27;0.10;;;0.10;;
17091;SDS011;8661;45.700;4.880;2023-06-04T01:33:57;0.10;;;0.10;;
17091;SDS011;8661;45.700;4.880;2023-06-04T01:36:26;0.10;;;0.10;;
17091;SDS011;8661;45.700;4.880;2023-06-04T01:38:53;0.10;;;0.10;;
17091;SDS011;8661;45.700;4.880;2023-06-04T01:41:20;0.10;;;0.10;;
17091;SDS011;8661;45.700;4.880;2023-06-04T01:43:46;0.10;;;0.10;;
17091;SDS011;8661;45.700;4.880;2023-06-04T01:46:13;0.10;;;0.10;;
17091;SDS011;8661;45.700;4.880;2023-06-04T01:48:40;0.10;;;0.10;;
17091;SDS011;8661;45.700;4.880;2023-06-04T01:51:07;0.10;;;0.10;;
17091;SDS011;8661;45.700;4.880;2023-06-04T01:53:35;0.10;;;0.10;;
17091;SDS011;8661;45.700;4.880;2023-06-04T01:56:02;0.10;;;0.10;;
17091;SDS011;8661;45.700;4.880;2023-06-04T01:58:29;0.10;;;0.10;;
17091;SDS011;8661;45.700;4.880;2023-06-04T02:00:57;0.10;;;0.10;;
17091;SDS011;8661;45.700;4.880;2023-06-04T02:03:25;0.00;;;0.00;;
17091;SDS011;8661;45.700;4.880;2023-06-04T02:05:52;0.10;;;0.10;;
17091;SDS011;8661;45.700;4.880;2023-06-04T02:08:19;0.00;;;0.00;;
17091;SDS011;8661;45.700;4.880;2023-06-04T02:10:47;0.10;;;0.10;;
17091;SDS011;8661;45.700;4.880;2023-06-04T02:13:15;0.10;;;0.10;;
17091;SDS011;8661;45.700;4.880;2023-06-04T02:15:42;0.10;;;0.10;;
17091;SDS011;8661;45.700;4.880;2023-06-04T02:18:13;0.10;;;0.10;;
17091;SDS011;8661;45.700;4.880;2023-06-04T02:20:42;0.10;;;0.10;;
17091;SDS011;8661;45.700;4.880;2023-06-04T02:23:10;0.10;;;0.10;;
17091;SDS011;8661;45.700;4.880;2023-06-04T02:25:37;0.10;;;0.10;;
17091;SDS011;8661;45.700;4.880;2023-06-04T02:28:05;0.73;;;0.40;;
17091;SDS011;8661;45.700;4.880;2023-06-04T02:30:32;0.10;;;0.10;;
17091;SDS011;8661;45.700;4.880;2023-06-04T02:32:59;0.07;;;0.07;;
17091;SDS011;8661;45.700;4.880;2023-06-04T02:35:27;0.10;;;0.10;;
17091;SDS011;8661;45.700;4.880;2023-06-04T02:37:54;0.10;;;0.10;;
17091;SDS011;8661;45.700;4.880;2023-06-04T02:40:23;0.10;;;0.10;;
17091;SDS011;8661;45.700;4.880;2023-06-04T02:42:50;0.10;;;0.10;;
17091;SDS011;8661;45.700;4.880;2023-06-04T02:45:19;0.10;;;0.10;;
17091;SDS011;8661;45.700;4.880;2023-06-04T02:47:46;0.10;;;0.10;;
17091;SDS011;8661;45.700;4.880;2023-06-04T02:50:13;0.10;;;0.10;;
17091;SDS011;8661;45.700;4.880;2023-06-04T02:52:41;0.00;;;0.00;;
17091;SDS011;8661;45.700;4.880;2023-06-04T02:55:08;0.10;;;0.10;;
17091;SDS011;8661;45.700;4.880;2023-06-04T02:57:37;0.10;;;0.10;;
17091;SDS011;8661;45.700;4.880;2023-06-04T03:00:05;0.10;;;0.10;;
17091;SDS011;8661;45.700;4.880;2023-06-04T03:02:38;0.07;;;0.07;;
17091;SDS011;8661;45.700;4.880;2023-06-04T03:05:09;0.10;;;0.10;;
17091;SDS011;8661;45.700;4.880;2023-06-04T03:07:38;0.10;;;0.10;;
17091;SDS011;8661;45.700;4.880;2023-06-04T03:10:08;0.10;;;0.10;;
17091;SDS011;8661;45.700;4.880;2023-06-04T03:12:35;0.10;;;0.10;;
17091;SDS011;8661;45.700;4.880;2023-06-04T03:15:02;0.10;;;0.10;;
17091;SDS011;8661;45.700;4.880;2023-06-04T03:17:30;0.10;;;0.10;;
17091;SDS011;8661;45.700;4.880;2023-06-04T03:19:58;0.10;;;0.10;;
17091;SDS011;8661;45.700;4.880;2023-06-04T03:22:25;0.10;;;0.10;;
17091;SDS011;8661;45.700;4.880;2023-06-04T03:24:53;0.10;;;0.10;;
17091;SDS011;8661;45.700;4.880;2023-06-04T03:27:20;0.20;;;0.20;;
17091;SDS011;8661;45.700;4.880;2023-06-04T03:29:47;0.10;;;0.10;;
17091;SDS011;8661;45.700;4.880;2023-06-04T03:32:14;0.10;;;0.10;;
17091;SDS011;8661;45.700;4.880;2023-06-04T03:34:42;0.10;;;0.10;;
17091;SDS011;8661;45.700;4.880;2023-06-04T03:37:10;0.10;;;0.10;;
17091;SDS011;8661;45.700;4.880;2023-06-04T03:39:37;0.10;;;0.10;;
17091;SDS011;8661;45.700;4.880;2023-06-04T03:42:04;0.20;;;0.20;;
17091;SDS011;8661;45.700;4.880;2023-06-04T03:44:31;0.10;;;0.10;;
17091;SDS011;8661;45.700;4.880;2023-06-04T03:46:58;0.10;;;0.10;;
17091;SDS011;8661;45.700;4.880;2023-06-04T03:49:25;0.20;;;0.20;;
17091;SDS011;8661;45.700;4.880;2023-06-04T03:51:54;0.10;;;0.10;;
17091;SDS011;8661;45.700;4.880;2023-06-04T03:54:23;0.10;;;0.10;;
17091;SDS011;8661;45.700;4.880;2023-06-04T03:56:50;0.10;;;0.10;;
17091;SDS011;8661;45.700;4.880;2023-06-04T03:59:17;0.00;;;0.00;;
17091;SDS011;8661;45.700;4.880;2023-06-04T04:01:43;0.10;;;0.10;;
17091;SDS011;8661;45.700;4.880;2023-06-04T04:04:10;0.10;;;0.10;;
17091;SDS011;8661;45.700;4.880;2023-06-04T04:06:37;0.10;;;0.10;;
17091;SDS011;8661;45.700;4.880;2023-06-04T04:09:05;0.10;;;0.10;;
17091;SDS011;8661;45.700;4.880;2023-06-04T04:11:33;0.10;;;0.10;;
17091;SDS011;8661;45.700;4.880;2023-06-04T04:14:00;0.10;;;0.10;;
17091;SDS011;8661;45.700;4.880;2023-06-04T04:16:27;0.10;;;0.10;;
17091;SDS011;8661;45.700;4.880;2023-06-04T04:18:53;0.10;;;0.10;;
17091;SDS011;8661;45.700;4.880;2023-06-04T04:21:21;0.20;;;0.20;;
17091;SDS011;8661;45.700;4.880;2023-06-04T04:23:48;0.63;;;0.30;;
17091;SDS011;8661;45.700;4.880;2023-06-04T04:26:16;0.10;;;0.10;;
17091;SDS011;8661;45.700;4.880;2023-06-04T04:28:45;0.20;;;0.20;;
17091;SDS011;8661;45.700;4.880;2023-06-04T04:31:12;0.10;;;0.10;;
17091;SDS011;8661;45.700;4.880;2023-06-04T04:33:39;0.20;;;0.20;;
17091;SDS011;8661;45.700;4.880;2023-06-04T04:36:06;0.10;;;0.10;;
17091;SDS011;8661;45.700;4.880;2023-06-04T04:38:37;0.20;;;0.20;;
17091;SDS011;8661;45.700;4.880;2023-06-04T04:41:05;0.10;;;0.10;;
17091;SDS011;8661;45.700;4.880;2023-06-04T04:43:33;0.10;;;0.10;;
17091;SDS011;8661;45.700;4.880;2023-06-04T04:46:03;0.03;;;0.03;;
17091;SDS011;8661;45.700;4.880;2023-06-04T04:48:30;0.20;;;0.20;;
17091;SDS011;8661;45.700;4.880;2023-06-04T04:50:58;0.13;;;0.13;;
17091;SDS011;8661;45.700;4.880;2023-06-04T04:53:25;0.10;;;0.10;;
17091;SDS011;8661;45.700;4.880;2023-06-04T04:55:52;0.10;;;0.10;;
17091;SDS011;8661;45.700;4.880;2023-06-04T04:58:19;0.30;;;0.30;;
17091;SDS011;8661;45.700;4.880;2023-06-04T05:00:46;0.20;;;0.20;;
17091;SDS011;8661;45.700;4.880;2023-06-04T05:03:14;0.10;;;0.10;;
17091;SDS011;8661;45.700;4.880;2023-06-04T05:05:41;0.10;;;0.10;;
17091;SDS011;8661;45.700;4.880;2023-06-04T05:08:08;0.00;;;0.00;;
17091;SDS011;8661;45.700;4.880;2023-06-04T05:10:35;0.10;;;0.10;;
17091;SDS011;8661;45.700;4.880;2023-06-04T05:13:02;0.10;;;0.10;;
17091;SDS011;8661;45.700;4.880;2023-06-04T05:15:29;0.10;;;0.10;;
17091;SDS011;8661;45.700;4.880;2023-06-04T05:17:56;0.10;;;0.10;;
17091;SDS011;8661;45.700;4.880;2023-06-04T05:20:27;0.30;;;0.30;;
17091;SDS011;8661;45.700;4.880;2023-06-04T05:22:54;0.10;;;0.10;;
17091;SDS011;8661;45.700;4.880;2023-06-04T05:25:21;0.10;;;0.10;;
17091;SDS011;8661;45.700;4.880;2023-06-04T05:27:48;0.10;;;0.10;;
17091;SDS011;8661;45.700;4.880;2023-06-04T05:30:15;0.10;;;0.10;;
17091;SDS011;8661;45.700;4.880;2023-06-04T05:32:42;0.10;;;0.10;;
17091;SDS011;8661;45.700;4.880;2023-06-04T05:35:09;0.23;;;0.23;;
17091;SDS011;8661;45.700;4.880;2023-06-04T05:37:38;0.10;;;0.10;;
17091;SDS011;8661;45.700;4.880;2023-06-04T05:40:07;0.20;;;0.20;;
17091;SDS011;8661;45.700;4.880;2023-06-04T05:42:35;0.10;;;0.10;;
17091;SDS011;8661;45.700;4.880;2023-06-04T05:45:03;0.20;;;0.20;;
17091;SDS011;8661;45.700;4.880;2023-06-04T05:47:33;0.10;;;0.10;;
17091;SDS011;8661;45.700;4.880;2023-06-04T05:50:00;0.10;;;0.10;;
17091;SDS011;8661;45.700;4.880;2023-06-04T05:52:27;0.10;;;0.10;;
17091;SDS011;8661;45.700;4.880;2023-06-04T05:54:55;0.10;;;0.10;;
17091;SDS011;8661;45.700;4.880;2023-06-04T05:57:25;0.00;;;0.00;;
17091;SDS011;8661;45.700;4.880;2023-06-04T05:59:52;0.10;;;0.10;;
17091;SDS011;8661;45.700;4.880;2023-06-04T06:02:19;0.10;;;0.10;;
17091;SDS011;8661;45.700;4.880;2023-06-04T06:04:45;0.27;;;0.23;;
17091;SDS011;8661;45.700;4.880;2023-06-04T06:07:12;0.30;;;0.30;;
17091;SDS011;8661;45.700;4.880;2023-06-04T06:09:39;0.20;;;0.20;;
17091;SDS011;8661;45.700;4.880;2023-06-04T06:12:07;0.10;;;0.10;;
17091;SDS011;8661;45.700;4.880;2023-06-04T06:14:34;0.10;;;0.10;;
17091;SDS011;8661;45.700;4.880;2023-06-04T06:17:01;0.83;;;0.50;;
17091;SDS011;8661;45.700;4.880;2023-06-04T06:19:29;0.13;;;0.13;;
17091;SDS011;8661;45.700;4.880;2023-06-04T06:21:56;0.10;;;0.10;;
17091;SDS011;8661;45.700;4.880;2023-06-04T06:24:23;0.10;;;0.10;;
17091;SDS011;8661;45.700;4.880;2023-06-04T06:26:50;0.20;;;0.20;;
17091;SDS011;8661;45.700;4.880;2023-06-04T06:29:19;0.10;;;0.10;;
17091;SDS011;8661;45.700;4.880;2023-06-04T06:31:46;0.00;;;0.00;;
17091;SDS011;8661;45.700;4.880;2023-06-04T06:34:13;0.00;;;0.00;;
17091;SDS011;8661;45.700;4.880;2023-06-04T06:36:40;0.27;;;0.27;;
17091;SDS011;8661;45.700;4.880;2023-06-04T06:39:07;0.00;;;0.00;;
17091;SDS011;8661;45.700;4.880;2023-06-04T06:41:35;0.10;;;0.10;;
17091;SDS011;8661;45.700;4.880;2023-06-04T06:44:03;0.10;;;0.10;;
17091;SDS011;8661;45.700;4.880;2023-06-04T06:46:32;0.10;;;0.10;;
17091;SDS011;8661;45.700;4.880;2023-06-04T06:48:59;0.20;;;0.20;;
17091;SDS011;8661;45.700;4.880;2023-06-04T06:51:26;0.07;;;0.07;;
17091;SDS011;8661;45.700;4.880;2023-06-04T06:53:53;0.10;;;0.10;;
17091;SDS011;8661;45.700;4.880;2023-06-04T06:56:20;0.10;;;0.10;;
17091;SDS011;8661;45.700;4.880;2023-06-04T06:58:47;0.10;;;0.10;;
17091;SDS011;8661;45.700;4.880;2023-06-04T07:01:14;0.10;;;0.10;;
17091;SDS011;8661;45.700;4.880;2023-06-04T07:03:42;0.10;;;0.10;;
17091;SDS011;8661;45.700;4.880;2023-06-04T07:06:09;0.20;;;0.20;;
17091;SDS011;8661;45.700;4.880;2023-06-04T07:08:36;0.20;;;0.20;;
17091;SDS011;8661;45.700;4.880;2023-06-04T07:11:03;0.10;;;0.10;;
17091;SDS011;8661;45.700;4.880;2023-06-04T07:13:30;0.10;;;0.10;;
17091;SDS011;8661;45.700;4.880;2023-06-04T07:16:00;0.13;;;0.13;;
17091;SDS011;8661;45.700;4.880;2023-06-04T07:18:27;0.20;;;0.20;;
17091;SDS011;8661;45.700;4.880;2023-06-04T07:20:55;0.10;;;0.10;;
17091;SDS011;8661;45.700;4.880;2023-06-04T07:23:22;0.10;;;0.10;;
17091;SDS011;8661;45.700;4.880;2023-06-04T07:25:49;0.10;;;0.10;;
17091;SDS011;8661;45.700;4.880;2023-06-04T07:28:16;0.03;;;0.03;;
17091;SDS011;8661;45.700;4.880;2023-06-04T07:30:44;6.33;;;5.00;;
17091;SDS011;8661;45.700;4.880;2023-06-04T07:33:12;10.03;;;5.23;;
17091;SDS011;8661;45.700;4.880;2023-06-04T07:35:39;8.67;;;4.93;;
17091;SDS011;8661;45.700;4.880;2023-06-04T07:38:07;7.40;;;4.30;;
17091;SDS011;8661;45.700;4.880;2023-06-04T07:40:34;5.90;;;4.63;;
17091;SDS011;8661;45.700;4.880;2023-06-04T07:43:01;5.03;;;4.10;;
17091;SDS011;8661;45.700;4.880;2023-06-04T07:45:28;7.40;;;4.40;;
17091;SDS011;8661;45.700;4.880;2023-06-04T07:47:56;6.03;;;4.50;;
17091;SDS011;8661;45.700;4.880;2023-06-04T07:50:26;6.37;;;4.60;;
17091;SDS011;8661;45.700;4.880;2023-06-04T07:52:52;4.40;;;3.73;;
17091;SDS011;8661;45.700;4.880;2023-06-04T07:55:21;5.80;;;4.10;;
17091;SDS011;8661;45.700;4.880;2023-06-04T07:57:48;5.80;;;3.87;;
17091;SDS011;8661;45.700;4.880;2023-06-04T08:00:15;6.70;;;3.60;;
17091;SDS011;8661;45.700;4.880;2023-06-04T08:02:42;5.47;;;4.00;;
17091;SDS011;8661;45.700;4.880;2023-06-04T08:05:09;5.63;;;4.20;;
17091;SDS011;8661;45.700;4.880;2023-06-04T08:07:38;4.73;;;4.10;;
17091;SDS011;8661;45.700;4.880;2023-06-04T08:10:06;4.88;;;4.18;;
17091;SDS011;8661;45.700;4.880;2023-06-04T08:12:35;4.53;;;3.60;;
17091;SDS011;8661;45.700;4.880;2023-06-04T08:15:02;6.50;;;4.13;;
17091;SDS011;8661;45.700;4.880;2023-06-04T08:17:30;5.70;;;3.70;;
17091;SDS011;8661;45.700;4.880;2023-06-04T08:19:57;6.27;;;3.50;;
17091;SDS011;8661;45.700;4.880;2023-06-04T08:22:24;5.33;;;3.53;;
17091;SDS011;8661;45.700;4.880;2023-06-04T08:24:54;6.23;;;3.60;;
17091;SDS011;8661;45.700;4.880;2023-06-04T08:27:21;5.17;;;3.27;;
17091;SDS011;8661;45.700;4.880;2023-06-04T08:29:49;6.23;;;4.10;;
17091;SDS011;8661;45.700;4.880;2023-06-04T08:32:17;5.67;;;4.17;;
17091;SDS011;8661;45.700;4.880;2023-06-04T08:34:44;6.27;;;3.77;;
17091;SDS011;8661;45.700;4.880;2023-06-04T08:37:11;5.97;;;4.40;;
17091;SDS011;8661;45.700;4.880;2023-06-04T08:39:38;5.53;;;3.93;;
17091;SDS011;8661;45.700;4.880;2023-06-04T08:42:06;4.20;;;3.80;;
17091;SDS011;8661;45.700;4.880;2023-06-04T08:44:35;5.77;;;4.00;;
17091;SDS011;8661;45.700;4.880;2023-06-04T08:47:05;5.43;;;4.03;;
17091;SDS011;8661;45.700;4.880;2023-06-04T08:49:34;8.07;;;4.20;;
17091;SDS011;8661;45.700;4.880;2023-06-04T08:52:02;4.67;;;3.73;;
17091;SDS011;8661;45.700;4.880;2023-06-04T08:54:30;6.17;;;4.50;;
17091;SDS011;8661;45.700;4.880;2023-06-04T08:56:58;4.73;;;3.80;;
17091;SDS011;8661;45.700;4.880;2023-06-04T08:59:27;6.43;;;4.87;;
17091;SDS011;8661;45.700;4.880;2023-06-04T09:01:54;5.40;;;4.07;;
17091;SDS011;8661;45.700;4.880;2023-06-04T09:04:23;5.23;;;3.77;;
17091;SDS011;8661;45.700;4.880;2023-06-04T09:06:50;7.33;;;4.37;;
17091;SDS011;8661;45.700;4.880;2023-06-04T09:09:18;4.50;;;3.80;;
17091;SDS011;8661;45.700;4.880;2023-06-04T09:11:48;5.13;;;3.63;;
17091;SDS011;8661;45.700;4.880;2023-06-04T09:14:18;7.33;;;3.37;;
17091;SDS011;8661;45.700;4.880;2023-06-04T09:16:47;5.60;;;3.40;;
17091;SDS011;8661;45.700;4.880;2023-06-04T09:19:15;5.17;;;3.30;;
17091;SDS011;8661;45.700;4.880;2023-06-04T09:21:51;4.43;;;3.90;;
17091;SDS011;8661;45.700;4.880;2023-06-04T09:24:19;4.77;;;3.47;;
17091;SDS011;8661;45.700;4.880;2023-06-04T09:26:47;6.03;;;4.13;;
17091;SDS011;8661;45.700;4.880;2023-06-04T09:29:14;4.00;;;3.60;;
17091;SDS011;8661;45.700;4.880;2023-06-04T09:31:43;7.47;;;3.93;;
17091;SDS011;8661;45.700;4.880;2023-06-04T09:34:12;5.03;;;3.27;;
17091;SDS011;8661;45.700;4.880;2023-06-04T09:36:39;5.10;;;3.57;;
17091;SDS011;8661;45.700;4.880;2023-06-04T09:39:15;3.63;;;3.33;;
17091;SDS011;8661;45.700;4.880;2023-06-04T09:41:43;6.23;;;3.30;;
17091;SDS011;8661;45.700;4.880;2023-06-04T09:44:10;8.27;;;2.90;;
17091;SDS011;8661;45.700;4.880;2023-06-04T09:46:37;3.83;;;2.70;;
17091;SDS011;8661;45.700;4.880;2023-06-04T09:49:04;3.60;;;3.10;;
17091;SDS011;8661;45.700;4.880;2023-06-04T09:51:32;3.27;;;2.57;;
17091;SDS011;8661;45.700;4.880;2023-06-04T09:53:59;3.90;;;2.90;;
17091;SDS011;8661;45.700;4.880;2023-06-04T09:56:28;6.73;;;3.33;;
17091;SDS011;8661;45.700;4.880;2023-06-04T09:58:57;4.57;;;3.00;;
17091;SDS011;8661;45.700;4.880;2023-06-04T10:01:26;5.00;;;2.97;;
17091;SDS011;8661;45.700;4.880;2023-06-04T10:03:54;6.03;;;3.50;;
17091;SDS011;8661;45.700;4.880;2023-06-04T10:06:24;4.87;;;2.90;;
17091;SDS011;8661;45.700;4.880;2023-06-04T10:08:52;4.63;;;2.83;;
17091;SDS011;8661;45.700;4.880;2023-06-04T10:11:24;4.40;;;3.03;;
17091;SDS011;8661;45.700;4.880;2023-06-04T10:14:01;3.20;;;2.90;;
17091;SDS011;8661;45.700;4.880;2023-06-04T10:16:30;4.97;;;3.30;;
17091;SDS011;8661;45.700;4.880;2023-06-04T10:18:58;3.77;;;3.40;;
17091;SDS011;8661;45.700;4.880;2023-06-04T10:21:27;3.50;;;2.80;;
17091;SDS011;8661;45.700;4.880;2023-06-04T10:23:59;4.20;;;3.40;;
17091;SDS011;8661;45.700;4.880;2023-06-04T10:26:26;3.40;;;3.10;;
17091;SDS011;8661;45.700;4.880;2023-06-04T10:28:55;3.30;;;2.73;;
17091;SDS011;8661;45.700;4.880;2023-06-04T10:31:25;2.70;;;2.38;;
17091;SDS011;8661;45.700;4.880;2023-06-04T10:33:53;5.95;;;3.10;;
17091;SDS011;8661;45.700;4.880;2023-06-04T10:36:21;3.30;;;2.65;;
17091;SDS011;8661;45.700;4.880;2023-06-04T10:38:50;4.78;;;2.85;;
17091;SDS011;8661;45.700;4.880;2023-06-04T10:41:18;4.57;;;2.78;;
17091;SDS011;8661;45.700;4.880;2023-06-04T10:43:46;3.35;;;2.80;;
17091;SDS011;8661;45.700;4.880;2023-06-04T10:46:15;4.43;;;2.72;;
17091;SDS011;8661;45.700;4.880;2023-06-04T10:48:50;6.05;;;2.85;;
17091;SDS011;8661;45.700;4.880;2023-06-04T10:51:28;4.93;;;3.40;;
17091;SDS011;8661;45.700;4.880;2023-06-04T10:53:56;4.53;;;3.28;;
17091;SDS011;8661;45.700;4.880;2023-06-04T10:56:26;3.92;;;3.58;;
17091;SDS011;8661;45.700;4.880;2023-06-04T10:58:54;3.83;;;3.17;;
17091;SDS011;8661;45.700;4.880;2023-06-04T11:01:25;4.53;;;3.03;;
17091;SDS011;8661;45.700;4.880;2023-06-04T11:03:55;6.45;;;3.40;;
17091;SDS011;8661;45.700;4.880;2023-06-04T11:06:22;3.40;;;2.80;;
17091;SDS011;8661;45.700;4.880;2023-06-04T11:09:00;2.95;;;2.65;;
17091;SDS011;8661;45.700;4.880;2023-06-04T11:11:28;3.60;;;2.90;;
17091;SDS011;8661;45.700;4.880;2023-06-04T11:13:55;3.00;;;2.50;;
17091;SDS011;8661;45.700;4.880;2023-06-04T11:16:34;4.88;;;2.70;;
17091;SDS011;8661;45.700;4.880;2023-06-04T11:19:02;2.72;;;2.53;;
17091;SDS011;8661;45.700;4.880;2023-06-04T11:21:29;4.15;;;2.45;;
17091;SDS011;8661;45.700;4.880;2023-06-04T11:23:57;3.97;;;3.38;;
17091;SDS011;8661;45.700;4.880;2023-06-04T11:26:29;3.40;;;3.00;;
17091;SDS011;8661;45.700;4.880;2023-06-04T11:28:57;3.83;;;2.30;;
17091;SDS011;8661;45.700;4.880;2023-06-04T11:31:23;2.92;;;2.47;;
17091;SDS011;8661;45.700;4.880;2023-06-04T11:33:51;8.70;;;2.53;;
17091;SDS011;8661;45.700;4.880;2023-06-04T11:36:25;4.90;;;2.42;;
17091;SDS011;8661;45.700;4.880;2023-06-04T11:38:54;2.88;;;2.55;;
17091;SDS011;8661;45.700;4.880;2023-06-04T11:41:24;3.42;;;2.40;;
17091;SDS011;8661;45.700;4.880;2023-06-04T11:43:54;3.13;;;2.20;;
17091;SDS011;8661;45.700;4.880;2023-06-04T11:46:22;3.17;;;2.20;;
17091;SDS011;8661;45.700;4.880;2023-06-04T11:48:50;2.00;;;1.73;;
17091;SDS011;8661;45.700;4.880;2023-06-04T11:51:17;2.50;;;2.22;;
17091;SDS011;8661;45.700;4.880;2023-06-04T11:53:47;3.30;;;2.15;;
17091;SDS011;8661;45.700;4.880;2023-06-04T11:56:14;5.80;;;3.20;;
17091;SDS011;8661;45.700;4.880;2023-06-04T11:58:42;3.85;;;2.05;;
17091;SDS011;8661;45.700;4.880;2023-06-04T12:01:11;2.53;;;2.22;;
17091;SDS011;8661;45.700;4.880;2023-06-04T12:03:39;12.20;;;11.30;;
17091;SDS011;8661;45.700;4.880;2023-06-04T12:06:13;2.33;;;2.13;;
17091;SDS011;8661;45.700;4.880;2023-06-04T12:08:49;3.92;;;2.10;;
17091;SDS011;8661;45.700;4.880;2023-06-04T12:11:27;2.92;;;1.95;;
17091;SDS011;8661;45.700;4.880;2023-06-04T12:13:56;3.08;;;2.78;;
17091;SDS011;8661;45.700;4.880;2023-06-04T12:16:25;2.78;;;2.28;;
17091;SDS011;8661;45.700;4.880;2023-06-04T12:18:52;3.22;;;2.45;;
17091;SDS011;8661;45.700;4.880;2023-06-04T12:21:33;3.42;;;2.38;;
17091;SDS011;8661;45.700;4.880;2023-06-04T12:24:09;2.20;;;1.90;;
17091;SDS011;8661;45.700;4.880;2023-06-04T12:26:37;2.83;;;1.92;;
17091;SDS011;8661;45.700;4.880;2023-06-04T12:29:08;2.17;;;2.03;;
17091;SDS011;8661;45.700;4.880;2023-06-04T12:31:37;2.72;;;2.20;;
17091;SDS011;8661;45.700;4.880;2023-06-04T12:34:04;2.75;;;2.53;;
17091;SDS011;8661;45.700;4.880;2023-06-04T12:36:31;2.55;;;2.35;;
17091;SDS011;8661;45.700;4.880;2023-06-04T12:39:00;3.17;;;2.38;;
17091;SDS011;8661;45.700;4.880;2023-06-04T12:41:30;3.00;;;1.60;;
17091;SDS011;8661;45.700;4.880;2023-06-04T12:43:59;3.35;;;2.20;;
17091;SDS011;8661;45.700;4.880;2023-06-04T12:46:26;4.45;;;1.92;;
17091;SDS011;8661;45.700;4.880;2023-06-04T12:48:54;5.00;;;2.22;;
17091;SDS011;8661;45.700;4.880;2023-06-04T12:51:21;4.93;;;2.22;;
17091;SDS011;8661;45.700;4.880;2023-06-04T12:53:48;4.32;;;2.42;;
17091;SDS011;8661;45.700;4.880;2023-06-04T12:56:16;2.80;;;2.30;;
17091;SDS011;8661;45.700;4.880;2023-06-04T12:58:44;4.43;;;2.33;;
17091;SDS011;8661;45.700;4.880;2023-06-04T13:01:11;6.93;;;2.15;;
17091;SDS011;8661;45.700;4.880;2023-06-04T13:03:39;2.55;;;2.35;;
17091;SDS011;8661;45.700;4.880;2023-06-04T13:06:06;3.40;;;2.38;;
17091;SDS011;8661;45.700;4.880;2023-06-04T13:08:33;3.85;;;2.30;;
17091;SDS011;8661;45.700;4.880;2023-06-04T13:11:00;3.83;;;2.13;;
17091;SDS011;8661;45.700;4.880;2023-06-04T13:13:27;3.22;;;2.45;;
17091;SDS011;8661;45.700;4.880;2023-06-04T13:15:56;4.47;;;2.67;;
17091;SDS011;8661;45.700;4.880;2023-06-04T13:18:24;3.53;;;2.60;;
17091;SDS011;8661;45.700;4.880;2023-06-04T13:20:52;5.60;;;2.15;;
17091;SDS011;8661;45.700;4.880;2023-06-04T13:23:19;3.33;;;2.40;;
17091;SDS011;8661;45.700;4.880;2023-06-04T13:25:46;3.75;;;2.65;;
17091;SDS011;8661;45.700;4.880;2023-06-04T13:28:13;3.08;;;2.78;;
17091;SDS011;8661;45.700;4.880;2023-06-04T13:30:41;5.75;;;2.67;;
17091;SDS011;8661;45.700;4.880;2023-06-04T13:33:09;3.47;;;2.40;;
17091;SDS011;8661;45.700;4.880;2023-06-04T13:35:38;3.70;;;3.13;;
17091;SDS011;8661;45.700;4.880;2023-06-04T13:38:09;2.70;;;2.50;;
17091;SDS011;8661;45.700;4.880;2023-06-04T13:40:37;2.85;;;2.10;;
17091;SDS011;8661;45.700;4.880;2023-06-04T13:43:04;3.67;;;2.50;;
17091;SDS011;8661;45.700;4.880;2023-06-04T13:45:31;2.55;;;2.33;;
17091;SDS011;8661;45.700;4.880;2023-06-04T13:47:58;4.00;;;2.58;;
17091;SDS011;8661;45.700;4.880;2023-06-04T13:50:31;4.45;;;2.40;;
17091;SDS011;8661;45.700;4.880;2023-06-04T13:52:58;9.35;;;4.65;;
17091;SDS011;8661;45.700;4.880;2023-06-04T13:55:25;3.92;;;3.55;;
17091;SDS011;8661;45.700;4.880;2023-06-04T13:57:51;2.75;;;2.55;;
17091;SDS011;8661;45.700;4.880;2023-06-04T14:00:18;3.17;;;2.20;;
17091;SDS011;8661;45.700;4.880;2023-06-04T14:02:46;3.05;;;2.55;;
17091;SDS011;8661;45.700;4.880;2023-06-04T14:05:14;4.28;;;2.60;;
17091;SDS011;8661;45.700;4.880;2023-06-04T14:07:43;3.60;;;2.17;;
17091;SDS011;8661;45.700;4.880;2023-06-04T14:10:10;3.20;;;2.90;;
17091;SDS011;8661;45.700;4.880;2023-06-04T14:12:37;2.72;;;2.53;;
17091;SDS011;8661;45.700;4.880;2023-06-04T14:15:06;3.35;;;2.70;;
17091;SDS011;8661;45.700;4.880;2023-06-04T14:17:33;4.97;;;3.95;;
17091;SDS011;8661;45.700;4.880;2023-06-04T14:20:00;5.53;;;4.00;;
17091;SDS011;8661;45.700;4.880;2023-06-04T14:22:32;3.05;;;2.75;;
17091;SDS011;8661;45.700;4.880;2023-06-04T14:25:00;4.97;;;2.70;;
17091;SDS011;8661;45.700;4.880;2023-06-04T14:27:27;2.53;;;2.33;;
17091;SDS011;8661;45.700;4.880;2023-06-04T14:29:54;3.15;;;2.80;;
17091;SDS011;8661;45.700;4.880;2023-06-04T14:32:21;3.42;;;2.72;;
17091;SDS011;8661;45.700;4.880;2023-06-04T14:34:48;3.00;;;2.35;;
17091;SDS011;8661;45.700;4.880;2023-06-04T14:37:15;3.13;;;2.42;;
17091;SDS011;8661;45.700;4.880;2023-06-04T14:39:42;3.15;;;2.75;;
17091;SDS011;8661;45.700;4.880;2023-06-04T14:42:10;3.78;;;2.95;;
17091;SDS011;8661;45.700;4.880;2023-06-04T14:44:38;4.97;;;2.72;;
17091;SDS011;8661;45.700;4.880;2023-06-04T14:47:05;4.07;;;2.55;;
17091;SDS011;8661;45.700;4.880;2023-06-04T14:49:32;4.03;;;2.55;;
17091;SDS011;8661;45.700;4.880;2023-06-04T14:51:59;4.38;;;2.55;;
17091;SDS011;8661;45.700;4.880;2023-06-04T14:54:26;6.68;;;2.80;;
17091;SDS011;8661;45.700;4.880;2023-06-04T14:56:55;8.98;;;3.30;;
17091;SDS011;8661;45.700;4.880;2023-06-04T14:59:23;4.55;;;3.05;;
17091;SDS011;8661;45.700;4.880;2023-06-04T15:01:50;3.47;;;3.17;;
17091;SDS011;8661;45.700;4.880;2023-06-04T15:04:19;5.85;;;3.35;;
17091;SDS011;8661;45.700;4.880;2023-06-04T15:06:46;3.53;;;3.20;;